Impacts TAF Board INFO
FOR SITUATIONAL AWARENESS. NOT TO BE USED FOR FLIGHT PLANNING PURPOSES.
IDs:

KEWR - Newark Intl, NJ, US

Issued at 2101 UTC 23 Apr 2018
Updated at 2113 UTC 23 Apr 2018
Potential Impact None Slight Moderate High
Time<<24/22Z 24/23Z 25/00Z 25/01Z 25/02Z 25/03Z 25/04Z 25/05Z 25/06Z 25/07Z 25/08Z 25/09Z 25/10Z
Type PRVL PRVL
VIS >6 >6
CIG 40 40
Cover BKN BKN
FltCat VFR VFR
WX -- --
WDir 110 110
WSpd 9 9
WGst -- --

Raw TAF
KEWR 232101Z 2321/2424 13008KT P6SM FEW250
  FM240300 VRB03KT P6SM SCT250
  FM241500 13010KT P6SM OVC200
  FM242200 11009KT P6SM BKN040


METAR Board
Radar Display
Forecast Discussion

FOR SITUATIONAL AWARENESS. NOT TO BE USED FOR FLIGHT PLANNING PURPOSES.